| time (UTC) | temp F | wind direction | speed MPH | gust MPH | rain 1hr in | rain 24hr in | rain mn in | humidity % | barometer mb |
| 20260906180007 | 73 | 154 | 3.0 | 10.0 | 0.00 | 0.00 | 0.00 | 38 | 1019.8 |
| 20260906174510 | 73 | 177 | 2.0 | 11.0 | 0.00 | 0.00 | 0.00 | 39 | 1019.9 |
| 20260906173010 | 73 | 121 | 4.0 | 10.0 | 0.00 | 0.00 | 0.00 | 38 | 1020.1 |
| 20260906171507 | 74 | 146 | 6.0 | 11.0 | 0.00 | 0.00 | 0.00 | 39 | 1020.1 |
| 20260906170014 | 73 | 150 | 3.0 | 8.0 | 0.00 | 0.00 | 0.00 | 39 | 1020.4 |
| 20260906164512 | 73 | 140 | 4.0 | 12.0 | 0.00 | 0.00 | 0.00 | 40 | 1020.2 |
| 20260906163009 | 72 | 139 | 4.0 | 11.0 | 0.00 | 0.00 | 0.00 | 41 | 1020.2 |
| 20260906161512 | 72 | 140 | 5.0 | 11.0 | 0.00 | 0.00 | 0.00 | 42 | 1020.2 |
| 20260906160014 | 71 | 134 | 5.0 | 11.0 | 0.00 | 0.00 | 0.00 | 43 | 1020.3 |
| 20260906154505 | 70 | 86 | 2.0 | 11.0 | 0.00 | 0.00 | 0.00 | 55 | 1021.3 |
| 20260906154503 | 70 | 86 | 2.0 | 11.0 | 0.00 | 0.00 | 0.00 | 45 | 1020.0 |
| 20260906153009 | 70 | 115 | 5.0 | 8.0 | 0.00 | 0.00 | 0.00 | 45 | 1020.2 |
| 20260906151505 | 70 | 155 | 4.0 | 11.0 | 0.00 | 0.00 | 0.00 | 45 | 1020.5 |
| 20260906150026 | 70 | 181 | 3.0 | 10.0 | 0.00 | 0.00 | 0.00 | 56 | 1021.3 |
| 20260906150010 | 70 | 146 | 4.0 | 11.0 | 0.00 | 0.00 | 0.00 | 46 | 1020.0 |
| 20260906144525 | 69 | 157 | 5.0 | 10.0 | 0.00 | 0.00 | 0.00 | 47 | 1020.1 |
| 20260906144502 | 69 | 165 | 6.0 | 10.0 | 0.00 | 0.00 | 0.00 | 57 | 1021.3 |
| 20260906143009 | 69 | 142 | 4.0 | 12.0 | 0.00 | 0.00 | 0.00 | 48 | 1020.2 |
| 20260906141505 | 69 | 121 | 5.0 | 14.0 | 0.00 | 0.00 | 0.00 | 48 | 1019.9 |
| 20260906140009 | 68 | 130 | 5.0 | 12.0 | 0.00 | 0.00 | 0.00 | 49 | 1019.9 |
| 20260906134522 | 68 | 160 | 3.0 | 12.0 | 0.00 | 0.00 | 0.00 | 49 | 1020.2 |
| 20260906133021 | 68 | 153 | 5.0 | 13.0 | 0.00 | 0.00 | 0.00 | 49 | 1020.3 |
| 20260906131523 | 68 | 130 | 3.0 | 9.0 | 0.00 | 0.00 | 0.00 | 49 | 1020.1 |
| 20260906130007 | 67 | 171 | 3.0 | 11.0 | 0.00 | 0.00 | 0.00 | 49 | 1019.7 |
| 20260906124513 | 67 | 144 | 4.0 | 10.0 | 0.00 | 0.00 | 0.00 | 49 | 1019.5 |
| 20260906123031 | 67 | 156 | 5.0 | 11.0 | 0.00 | 0.00 | 0.00 | 49 | 1019.5 |
| 20260906121525 | 67 | 126 | 3.0 | 8.0 | 0.00 | 0.00 | 0.00 | 49 | 1019.5 |
| 20260906120030 | 66 | 134 | 3.0 | 9.0 | 0.00 | 0.00 | 0.00 | 49 | 1019.3 |
| 20260906114509 | 66 | 144 | 2.0 | 8.0 | 0.00 | 0.00 | 0.00 | 49 | 1019.1 |
| 20260906113017 | 66 | 120 | 1.0 | 7.0 | 0.00 | 0.00 | 0.00 | 48 | 1019.1 |
| 20260906111529 | 66 | 127 | 1.0 | 7.0 | 0.00 | 0.00 | 0.00 | 48 | 1019.0 |
| 20260906110025 | 66 | 148 | 1.0 | 4.0 | 0.00 | 0.00 | 0.00 | 48 | 1019.0 |
| 20260906104532 | 66 | 112 | 1.0 | 4.0 | 0.00 | 0.00 | 0.00 | 48 | 1019.0 |
| 20260906103016 | 66 | 127 | 1.0 | 4.0 | 0.00 | 0.00 | 0.00 | 47 | 1019.0 |
| 20260906101521 | 67 | 111 | 2.0 | 8.0 | 0.00 | 0.00 | 0.00 | 48 | 1018.7 |
| 20260906100028 | 67 | 151 | 2.0 | 5.0 | 0.00 | 0.00 | 0.00 | 47 | 1018.5 |
| 20260906094527 | 67 | 140 | 1.0 | 3.0 | 0.00 | 0.00 | 0.00 | 47 | 1018.5 |
| 20260906093033 | 67 | 98 | 0.0 | 2.0 | 0.00 | 0.00 | 0.00 | 47 | 1018.3 |
| 20260906091515 | 68 | 119 | 0.0 | 6.0 | 0.00 | 0.00 | 0.00 | 47 | 1018.1 |
| 20260906090023 | 68 | 130 | 2.0 | 6.0 | 0.00 | 0.00 | 0.00 | 47 | 1018.0 |
| 20260906084528 | 68 | 115 | 1.0 | 5.0 | 0.00 | 0.00 | 0.00 | 47 | 1017.6 |
| 20260906083034 | 68 | 119 | 1.0 | 8.0 | 0.00 | 0.00 | 0.00 | 47 | 1017.5 |
| 20260906081535 | 68 | 166 | 1.0 | 7.0 | 0.00 | 0.00 | 0.00 | 47 | 1017.7 |
| 20260906080026 | 69 | 130 | 0.0 | 6.0 | 0.00 | 0.00 | 0.00 | 47 | 1017.8 |
| 20260906074523 | 69 | 127 | 1.0 | 7.0 | 0.00 | 0.00 | 0.00 | 47 | 1018.0 |
| 20260906073030 | 69 | 188 | 1.0 | 6.0 | 0.00 | 0.00 | 0.00 | 47 | 1018.1 |
| 20260906071530 | 69 | 154 | 0.0 | 8.0 | 0.00 | 0.00 | 0.00 | 47 | 1018.1 |
| 20260906070012 | 69 | 136 | 2.0 | 7.0 | 0.00 | 0.00 | 0.00 | 47 | 1018.2 |
| 20260906064503 | 69 | 161 | 1.0 | 7.0 | 0.00 | 0.00 | 0.00 | 47 | 1018.3 |
| 20260906063005 | 69 | 119 | 0.0 | 4.0 | 0.00 | 0.00 | 0.00 | 47 | 1018.4 |
| 20260906061508 | 69 | 117 | 2.0 | 6.0 | 0.00 | 0.00 | 0.00 | 47 | 1018.4 |
| 20260906060008 | 69 | 92 | 1.0 | 7.0 | 0.00 | 0.00 | 0.00 | 47 | 1018.4 |
| 20260906054516 | 70 | 125 | 1.0 | 7.0 | 0.00 | 0.00 | 0.00 | 47 | 1018.6 |
| 20260906053004 | 70 | 80 | 0.0 | 6.0 | 0.00 | 0.00 | 0.00 | 47 | 1018.6 |
| 20260906051505 | 70 | 113 | 0.0 | 5.0 | 0.00 | 0.00 | 0.00 | 47 | 1018.5 |
| 20260906050008 | 70 | 114 | 0.0 | 4.0 | 0.00 | 0.00 | 0.00 | 47 | 1018.6 |
| 20260906044514 | 70 | 113 | 0.0 | 3.0 | 0.00 | 0.00 | 0.00 | 47 | 1018.9 |
| 20260906043027 | 70 | 121 | 0.0 | 4.0 | 0.00 | 0.00 | 0.00 | 47 | 1018.8 |
| 20260906041504 | 70 | 121 | 1.0 | 5.0 | 0.00 | 0.00 | 0.00 | 47 | 1018.7 |
| 20260906040005 | 70 | 133 | 0.0 | 3.0 | 0.00 | 0.00 | 0.00 | 47 | 1018.7 |
| 20260906034508 | 71 | 115 | 1.0 | 4.0 | 0.00 | 0.00 | 0.00 | 47 | 1018.8 |
| 20260906033020 | 71 | 111 | 0.0 | 2.0 | 0.00 | 0.00 | 0.00 | 47 | 1018.9 |
| 20260906031518 | 71 | 113 | 0.0 | 1.0 | 0.00 | 0.00 | 0.00 | 47 | 1018.8 |
| 20260906030004 | 71 | 113 | 0.0 | 0.0 | 0.00 | 0.00 | 0.00 | 46 | 1018.8 |
| 20260906024506 | 72 | 113 | 0.0 | 1.0 | 0.00 | 0.00 | 0.00 | 46 | 1018.5 |
| 20260906023011 | 72 | 113 | 0.0 | 0.0 | 0.00 | 0.00 | 0.00 | 45 | 1018.2 |
| 20260906021516 | 72 | 113 | 0.0 | 3.0 | 0.00 | 0.00 | 0.00 | 45 | 1018.1 |
| 20260906020024 | 73 | 113 | 1.0 | 4.0 | 0.00 | 0.00 | 0.00 | 45 | 1017.6 |
| 20260906014507 | 73 | 138 | 0.0 | 4.0 | 0.00 | 0.00 | 0.00 | 44 | 1017.4 |
| 20260906013008 | 74 | 126 | 0.0 | 4.0 | 0.00 | 0.00 | 0.00 | 44 | 1017.2 |
| 20260906011512 | 74 | 118 | 0.0 | 3.0 | 0.00 | 0.00 | 0.00 | 43 | 1017.3 |
| 20260906010018 | 74 | 155 | 1.0 | 6.0 | 0.00 | 0.00 | 0.00 | 43 | 1017.3 |
| 20260906004523 | 75 | 136 | 1.0 | 7.0 | 0.00 | 0.00 | 0.00 | 42 | 1017.1 |
| 20260906003030 | 75 | 127 | 1.0 | 4.0 | 0.00 | 0.00 | 0.00 | 42 | 1017.1 |
| 20260906001516 | 76 | 114 | 1.0 | 4.0 | 0.00 | 0.00 | 0.00 | 41 | 1016.9 |
| 20260906000034 | 76 | 164 | 2.0 | 8.0 | 0.00 | 0.00 | 0.00 | 40 | 1016.8 |
| 20260905234526 | 76 | 119 | 4.0 | 12.0 | 0.00 | 0.00 | 0.00 | 40 | 1016.7 |
| 20260905233029 | 77 | 149 | 3.0 | 6.0 | 0.00 | 0.00 | 0.00 | 40 | 1016.8 |
| 20260905231533 | 77 | 100 | 3.0 | 7.0 | 0.00 | 0.00 | 0.00 | 39 | 1016.6 |
| 20260905230011 | 78 | 134 | 2.0 | 7.0 | 0.00 | 0.00 | 0.00 | 38 | 1016.5 |
| 20260905224517 | 78 | 132 | 4.0 | 10.0 | 0.00 | 0.00 | 0.00 | 37 | 1016.4 |
| 20260905223028 | 78 | 114 | 2.0 | 9.0 | 0.00 | 0.00 | 0.00 | 37 | 1016.4 |
| 20260905221528 | 78 | 123 | 3.0 | 10.0 | 0.00 | 0.00 | 0.00 | 36 | 1016.4 |
| 20260905220012 | 78 | 89 | 3.0 | 9.0 | 0.00 | 0.00 | 0.00 | 36 | 1016.4 |
| 20260905214518 | 78 | 129 | 1.0 | 10.0 | 0.00 | 0.00 | 0.00 | 37 | 1016.1 |
| 20260905213004 | 78 | 53 | 3.0 | 10.0 | 0.00 | 0.00 | 0.00 | 37 | 1016.1 |
| 20260905211503 | 77 | 183 | 4.0 | 11.0 | 0.00 | 0.00 | 0.00 | 37 | 1016.2 |
| 20260905210008 | 76 | 48 | 4.0 | 10.0 | 0.00 | 0.00 | 0.00 | 39 | 1016.1 |
| 20260905204510 | 76 | 56 | 3.0 | 10.0 | 0.00 | 0.00 | 0.00 | 39 | 1016.2 |
| 20260905203019 | 76 | 61 | 1.0 | 8.0 | 0.00 | 0.00 | 0.00 | 40 | 1016.4 |
| 20260905201508 | 76 | 49 | 2.0 | 7.0 | 0.00 | 0.00 | 0.00 | 39 | 1016.4 |
| 20260905200004 | 76 | 54 | 2.0 | 7.0 | 0.00 | 0.00 | 0.00 | 39 | 1016.8 |
| 20260905194512 | 76 | 36 | 2.0 | 7.0 | 0.00 | 0.00 | 0.00 | 39 | 1017.0 |
| 20260905193015 | 77 | 107 | 3.0 | 8.0 | 0.00 | 0.00 | 0.00 | 39 | 1016.7 |
| 20260905191527 | 77 | 145 | 2.0 | 10.0 | 0.00 | 0.00 | 0.00 | 39 | 1017.2 |
| 20260905190004 | 77 | 96 | 3.0 | 9.0 | 0.00 | 0.00 | 0.00 | 39 | 1017.5 |
| 20260905184522 | 77 | 150 | 1.0 | 5.0 | 0.00 | 0.00 | 0.00 | 39 | 1017.6 |
| 20260905183029 | 77 | 65 | 3.0 | 7.0 | 0.00 | 0.00 | 0.00 | 40 | 1017.9 |
| 20260905181521 | 76 | 115 | 2.0 | 6.0 | 0.00 | 0.00 | 0.00 | 40 | 1018.2 |